OITK  Khoy Airport

Add Bookmark

Khoy, Iran

Status IATA
Operational KHY
Latitude Longitude
38° 25' 39" N 44° 58' 24" E
38.427502 44.973598
Local (DST + 5) UTC (GMT + 4)
Sep 2, 2014 11:16 Sep 2, 2014 18:46
Sunrise-Sunset Local UTC
Begin Civil Twilight 06:32 02:02
Sunrise 06:59 02:29
Sunset 08:00 15:30
End Civil Twilight 08:27 15:57

Current Weather

METAR Observed VFR
OITK 021000Z 02004KT 9999 FEW035TCU 31/11 Q1011 Tue, Sep 2, 2014 @ 10:00 UTC
(8 Hours, 46 Minutes ago)
Visual Flight Rules
Wind Visibility Clouds Conditions
020° at 4 knots (7 kph) 10 km or more
  • Few at 3,500' AGL
  • No significant weather
Temperatures Readings Precipitation
Current Temp 31°C (88°F)
Dewpoint 11°C (52°F)
Humidity 29%
Altimeter 29.85"Hg
Sea Level Pressure 1011mb
Field Elevation 3631.89'
None Recorded

Additional weather within a 92.6km radius of OITK

Map ICAO Location
OITR 84.8km S (174°)

24 Hour Weather History

Loading
-

24 Hour Weather Graphs

Loading
-

CheckWX.com is intended as a tool to help pilots better visualize weather data. It is not intended as a substitute for an official weather briefing obtained from a Flight Service Station. CheckWX.com does not meet the FAA requirements for an official pre-flight weather briefing. Therefore, it's important that pilots still call and obtain an official FSS pre-flight weather briefing.